»·PEaware :: SKW5798 KGCN-KLAX

SKW5798 :: KGCN-KLAX

FLIGHT INFORMATION

Flight Status: Arrived
Operator:
SkyWest Airlines
More flights by this operator :: More flights under this callsign
Pilot: Jack B. (5846)
Aircraft: CANADAIR CL-600 CRJ-200
(CRJ2)
More flights by this aircraft type
Origin: KGCN Grand Canyon Natl Park
United States
Destination: KLAX Los Angeles Intl
United States
More flights between these airports :: More routes between these airports
Route: GRAND4 BISOP GABBL HLYWD1
File this flight plan on PilotEdge
Remarks:
Altitude:
(Current/Filed)
280ft
Speed:
(Current/Filed)
320kts
Departed: 23-May-19 02:09 PM
Arrived: 23-May-19 03:07 PM
Distance/Time
Traveled:
330nm/0:57
Distance/Time
To Go:
Arrived

Flight Plot

Page will automatically refresh every two minutes.

Flight plan parsing failed; only flown route is shown


Map Options




Map Legend


Flown Route
Filed Route
Departure Airport
Arrival Airport
Navaid (VOR, NDB)
Fix

Horizontal Profiles

Position Reports

Time Latitude Longitude Heading Altitude Ground
Speed
23-May-19 13:53 35.960903 -112.134968 220 6619ft 0kts
23-May-19 13:54 35.960903 -112.134968 220 6619ft 0kts
23-May-19 13:58 35.960898 -112.134968 220 6619ft 0kts
23-May-19 13:59 35.960898 -112.134968 220 6619ft 0kts
23-May-19 14:00 35.960898 -112.134968 220 6619ft 0kts
23-May-19 14:01 35.960898 -112.134968 220 6619ft 0kts
23-May-19 14:02 35.960898 -112.134968 220 6619ft 0kts
23-May-19 14:04 35.960898 -112.134968 220 6619ft 0kts
23-May-19 14:05 35.960898 -112.134968 220 6619ft 0kts
23-May-19 14:06 35.960882 -112.134995 237 6619ft 1kts
23-May-19 14:07 35.961024 -112.136027 257 6615ft 3kts
23-May-19 14:08 35.961260 -112.137512 218 6611ft 14kts
23-May-19 14:09 35.937079 -112.166298 234 7624ft 176kts
23-May-19 14:10 35.899321 -112.220633 217 9512ft 241kts
23-May-19 14:11 35.836190 -112.266720 208 11475ft 287kts
23-May-19 14:12 35.761171 -112.313805 207 13409ft 318kts
23-May-19 14:13 35.680748 -112.363407 208 15608ft 328kts
23-May-19 14:14 35.598275 -112.414110 207 17520ft 337kts
23-May-19 14:15 35.535129 -112.497653 231 19144ft 343kts
23-May-19 14:16 35.475645 -112.590477 231 20611ft 350kts
23-May-19 14:17 35.415169 -112.684539 231 21950ft 356kts
23-May-19 14:18 35.353242 -112.780621 231 23208ft 363kts
23-May-19 14:19 35.289915 -112.878554 232 24235ft 372kts
23-May-19 14:20 35.224707 -112.979168 233 25086ft 383kts
23-May-19 14:21 35.157686 -113.082299 233 25839ft 393kts
23-May-19 14:22 35.089445 -113.187581 232 26643ft 399kts
23-May-19 14:23 35.019920 -113.293937 233 27385ft 404kts
23-May-19 14:24 34.949628 -113.401112 233 28022ft 409kts
23-May-19 14:25 34.877174 -113.511243 232 28023ft 424kts
23-May-19 14:26 34.802461 -113.624416 232 28019ft 433kts
23-May-19 14:26 34.739427 -113.719622 232 28018ft 437kts
23-May-19 14:28 34.649955 -113.854331 232 28000ft 441kts
23-May-19 14:29 34.572843 -113.970009 232 27988ft 442kts
23-May-19 14:29 34.511589 -114.068843 247 27978ft 439kts
23-May-19 14:31 34.480431 -114.223224 255 27994ft 440kts
23-May-19 14:31 34.455064 -114.342795 254 27992ft 440kts
23-May-19 14:32 34.424357 -114.486265 255 27995ft 441kts
23-May-19 14:33 34.394003 -114.627195 255 27979ft 441kts
23-May-19 14:34 34.362900 -114.770797 254 27970ft 441kts
23-May-19 14:35 34.331603 -114.914366 254 27966ft 441kts
23-May-19 14:36 34.300090 -115.057755 255 27972ft 441kts
23-May-19 14:37 34.268801 -115.200752 255 28008ft 443kts
23-May-19 14:38 34.237880 -115.345390 256 28021ft 445kts
23-May-19 14:39 34.206891 -115.489916 256 28020ft 446kts
23-May-19 14:40 34.175650 -115.634714 256 28019ft 446kts
23-May-19 14:41 34.154967 -115.781655 263 28018ft 445kts
23-May-19 14:42 34.140543 -115.929377 263 28016ft 445kts
23-May-19 14:43 34.126016 -116.077369 263 28015ft 444kts
23-May-19 14:44 34.111857 -116.223246 263 28019ft 445kts
23-May-19 14:45 34.096533 -116.371636 263 28002ft 446kts
23-May-19 14:46 34.080925 -116.516691 263 27994ft 447kts
23-May-19 14:47 34.066004 -116.665545 264 27614ft 452kts
23-May-19 14:48 34.051908 -116.815820 264 25477ft 454kts
23-May-19 14:49 34.034996 -116.965637 261 23125ft 447kts
23-May-19 14:50 34.017149 -117.110214 261 20919ft 429kts
23-May-19 14:51 34.001193 -117.246168 261 18179ft 411kts
23-May-19 14:52 33.985723 -117.376080 261 15420ft 373kts
23-May-19 14:53 33.973784 -117.488484 273 13984ft 304kts
23-May-19 14:54 33.989777 -117.587448 281 12125ft 300kts
23-May-19 14:55 34.005615 -117.682264 267 10200ft 276kts
23-May-19 14:56 33.997688 -117.775401 261 8644ft 282kts
23-May-19 14:57 33.988745 -117.867078 263 7067ft 265kts
23-May-19 14:58 33.980246 -117.953693 262 6316ft 264kts
23-May-19 14:59 33.971674 -118.041367 262 4880ft 258kts
23-May-19 15:00 33.963139 -118.127192 261 4282ft 249kts
23-May-19 15:01 33.955570 -118.202839 262 3108ft 214kts
23-May-19 15:02 33.949145 -118.266585 262 2123ft 182kts
23-May-19 15:03 33.943565 -118.321656 262 1138ft 156kts
23-May-19 15:04 33.938636 -118.370131 262 347ft 148kts
23-May-19 15:05 33.935436 -118.404715 283 120ft 42kts
23-May-19 15:06 33.938114 -118.406325 82 123ft 29kts
23-May-19 15:07 33.940005 -118.398194 354 110ft 23kts
23-May-19 15:08 33.942206 -118.399150 263 112ft 0kts
23-May-19 15:09 33.942206 -118.399150 263 112ft 0kts
23-May-19 15:10 33.942206 -118.399150 263 112ft 0kts
23-May-19 15:11 33.942206 -118.399150 263 112ft 0kts

Navigation Log

Ident Type
Flight plan parsing failed, navigation log unavailable